DLH01CH ZWSH-ZWWW
Flight info
| Callsign | DLH01CH |
|---|---|
| Flight time | 1h 37m |
| Altitude | 35000 |
| Route | KHG W176 MAGIV B215 WUR |
| Aircraft | B738/M-SDE2E3FGHIRWXY/LB1 |
Departure
| Time | 2026-05-04 07:41 |
|---|---|
| Airport | Kashgar Laining International Airport (ZWSH) |
Arrival
| Time | 2026-05-04 09:19 |
|---|---|
| Airport | Ürümqi Tianshan International Airport (ZWWW) |
| Time | Latitude | Longitude | Altitude | Speed | Heading |
|---|---|---|---|---|---|
| 2026-05-04 07:30 | 39.53821 | 76.01384 | 4546 ft | 0 kts | 178° |
| 2026-05-04 07:38 | 39.54023 | 76.01258 | 4518 ft | 20 kts | 263° |
| 2026-05-04 07:38 | 39.54015 | 76.01082 | 4518 ft | 19 kts | 267° |
| 2026-05-04 07:38 | 39.54006 | 76.00911 | 4518 ft | 19 kts | 263° |
| 2026-05-04 07:38 | 39.54003 | 76.00745 | 4518 ft | 18 kts | 273° |
| 2026-05-04 07:39 | 39.53995 | 76.00585 | 4518 ft | 17 kts | 268° |
| 2026-05-04 07:39 | 39.53981 | 76.00434 | 4518 ft | 17 kts | 264° |
| 2026-05-04 07:39 | 39.53971 | 76.00284 | 4517 ft | 16 kts | 265° |
| 2026-05-04 07:39 | 39.54017 | 76.00172 | 4518 ft | 16 kts | 346° |
| 2026-05-04 07:40 | 39.54120 | 76.00183 | 4519 ft | 15 kts | 37° |
| 2026-05-04 07:40 | 39.54152 | 76.00304 | 4518 ft | 14 kts | 80° |
| 2026-05-04 07:40 | 39.54166 | 76.00477 | 4519 ft | 42 kts | 85° |
| 2026-05-04 07:40 | 39.54201 | 76.01191 | 4518 ft | 115 kts | 85° |
| 2026-05-04 07:41 | 39.54268 | 76.02503 | 4519 ft | 175 kts | 91° |
| 2026-05-04 07:41 | 39.54274 | 76.04162 | 4996 ft | 199 kts | 92° |
| 2026-05-04 07:41 | 39.54365 | 76.06063 | 5521 ft | 221 kts | 86° |
| 2026-05-04 07:41 | 39.54509 | 76.08149 | 5994 ft | 244 kts | 86° |
| 2026-05-04 07:42 | 39.54651 | 76.10379 | 6391 ft | 246 kts | 87° |
| 2026-05-04 07:42 | 39.54786 | 76.12599 | 6801 ft | 252 kts | 86° |
| 2026-05-04 07:42 | 39.54804 | 76.14876 | 7146 ft | 256 kts | 105° |
| 2026-05-04 07:42 | 39.53907 | 76.16804 | 7590 ft | 253 kts | 141° |
| 2026-05-04 07:43 | 39.52466 | 76.18158 | 8097 ft | 259 kts | 146° |
| 2026-05-04 07:43 | 39.50965 | 76.19471 | 8561 ft | 261 kts | 146° |
| 2026-05-04 07:43 | 39.49454 | 76.20797 | 8992 ft | 263 kts | 144° |
| 2026-05-04 07:43 | 39.48090 | 76.22386 | 9435 ft | 265 kts | 133° |
| 2026-05-04 07:44 | 39.47121 | 76.23760 | 9775 ft | 265 kts | 133° |
| 2026-05-04 07:44 | 39.45885 | 76.25529 | 10200 ft | 266 kts | 133° |
| 2026-05-04 07:44 | 39.44647 | 76.27321 | 10624 ft | 269 kts | 132° |
| 2026-05-04 07:44 | 39.43386 | 76.29148 | 11093 ft | 278 kts | 134° |
| 2026-05-04 07:45 | 39.42050 | 76.31060 | 11545 ft | 293 kts | 133° |
| 2026-05-04 07:45 | 39.40650 | 76.33071 | 12008 ft | 307 kts | 133° |
| 2026-05-04 07:45 | 39.39180 | 76.35181 | 12446 ft | 323 kts | 133° |
| 2026-05-04 07:45 | 39.37653 | 76.37356 | 12917 ft | 338 kts | 133° |
| 2026-05-04 07:46 | 39.36046 | 76.39651 | 13354 ft | 351 kts | 133° |
| 2026-05-04 07:46 | 39.34376 | 76.42034 | 13812 ft | 363 kts | 133° |
| 2026-05-04 07:46 | 39.32660 | 76.44490 | 14236 ft | 371 kts | 133° |
| 2026-05-04 07:46 | 39.30941 | 76.46969 | 14621 ft | 371 kts | 133° |
| 2026-05-04 07:47 | 39.29199 | 76.49474 | 15058 ft | 377 kts | 133° |
| 2026-05-04 07:47 | 39.27431 | 76.52003 | 15495 ft | 382 kts | 133° |
| 2026-05-04 07:47 | 39.25642 | 76.54556 | 15945 ft | 385 kts | 133° |
| 2026-05-04 07:49 | 39.12878 | 76.72721 | 19049 ft | 399 kts | 133° |
| 2026-05-04 07:49 | 39.11000 | 76.75383 | 19476 ft | 404 kts | 133° |
| 2026-05-04 07:49 | 39.09098 | 76.78078 | 19909 ft | 409 kts | 133° |
| 2026-05-04 07:50 | 39.07175 | 76.80798 | 20344 ft | 411 kts | 133° |
| 2026-05-04 07:50 | 39.05247 | 76.83525 | 20784 ft | 413 kts | 133° |
| 2026-05-04 07:50 | 39.03305 | 76.86270 | 21231 ft | 415 kts | 133° |
| 2026-05-04 07:50 | 39.01359 | 76.89017 | 21684 ft | 417 kts | 133° |
| 2026-05-04 07:51 | 38.99403 | 76.91776 | 22138 ft | 418 kts | 133° |
| 2026-05-04 07:51 | 38.97436 | 76.94549 | 22615 ft | 420 kts | 133° |
| 2026-05-04 07:51 | 38.95461 | 76.97329 | 23030 ft | 424 kts | 133° |
| 2026-05-04 07:51 | 38.93456 | 77.00150 | 23346 ft | 429 kts | 134° |
| 2026-05-04 07:52 | 38.91428 | 77.03000 | 23626 ft | 434 kts | 134° |
| 2026-05-04 07:52 | 38.89380 | 77.05875 | 23897 ft | 438 kts | 134° |
| 2026-05-04 07:52 | 38.87314 | 77.08773 | 24175 ft | 442 kts | 134° |
| 2026-05-04 07:52 | 38.85227 | 77.11698 | 24453 ft | 446 kts | 134° |
| 2026-05-04 07:53 | 38.83118 | 77.14652 | 24738 ft | 449 kts | 134° |
| 2026-05-04 07:54 | 38.68047 | 77.35682 | 26762 ft | 465 kts | 135° |
| 2026-05-04 07:55 | 38.65854 | 77.38731 | 27060 ft | 467 kts | 135° |
| 2026-05-04 07:55 | 38.63675 | 77.41816 | 27367 ft | 469 kts | 130° |
| 2026-05-04 07:55 | 38.62034 | 77.45447 | 27632 ft | 476 kts | 112° |
| 2026-05-04 07:55 | 38.61302 | 77.49594 | 27955 ft | 481 kts | 95° |
| 2026-05-04 07:56 | 38.61522 | 77.53864 | 28277 ft | 485 kts | 79° |
| 2026-05-04 07:56 | 38.62622 | 77.57939 | 28581 ft | 487 kts | 62° |
| 2026-05-04 07:56 | 38.64515 | 77.61525 | 28944 ft | 487 kts | 53° |
| 2026-05-04 07:56 | 38.66566 | 77.64913 | 29258 ft | 488 kts | 52° |
| 2026-05-04 07:57 | 38.68678 | 77.68321 | 29597 ft | 488 kts | 51° |
| 2026-05-04 07:57 | 38.70792 | 77.71731 | 29895 ft | 489 kts | 51° |
| 2026-05-04 07:57 | 38.72897 | 77.75159 | 30174 ft | 489 kts | 52° |
| 2026-05-04 07:57 | 38.74984 | 77.78598 | 30452 ft | 489 kts | 52° |
| 2026-05-04 07:58 | 38.77055 | 77.82046 | 30744 ft | 488 kts | 52° |
| 2026-05-04 07:58 | 38.79120 | 77.85505 | 31030 ft | 488 kts | 52° |
| 2026-05-04 07:58 | 38.81176 | 77.88961 | 31322 ft | 487 kts | 52° |
| 2026-05-04 07:58 | 38.82539 | 77.91259 | 31516 ft | 487 kts | 52° |
| 2026-05-04 07:59 | 38.84586 | 77.94710 | 31815 ft | 486 kts | 52° |
| 2026-05-04 07:59 | 38.86627 | 77.98154 | 32113 ft | 484 kts | 52° |
| 2026-05-04 07:59 | 38.89326 | 78.02711 | 32516 ft | 483 kts | 52° |
| 2026-05-04 07:59 | 38.90700 | 78.05032 | 32732 ft | 482 kts | 52° |
| 2026-05-04 08:00 | 38.92698 | 78.08411 | 33028 ft | 480 kts | 52° |
| 2026-05-04 08:00 | 38.94712 | 78.11819 | 33341 ft | 478 kts | 52° |
| 2026-05-04 08:00 | 38.96724 | 78.15227 | 33652 ft | 477 kts | 52° |
| 2026-05-04 08:02 | 39.10684 | 78.38977 | 34753 ft | 485 kts | 53° |
| 2026-05-04 08:02 | 39.14752 | 78.45932 | 34756 ft | 487 kts | 53° |
| 2026-05-04 08:03 | 39.18790 | 78.52850 | 34731 ft | 477 kts | 53° |
| 2026-05-04 08:03 | 39.22767 | 78.59678 | 34746 ft | 476 kts | 53° |
| 2026-05-04 08:04 | 39.26744 | 78.66522 | 34738 ft | 477 kts | 53° |
| 2026-05-04 08:04 | 39.30698 | 78.73338 | 34735 ft | 477 kts | 53° |
| 2026-05-04 08:05 | 39.34675 | 78.80211 | 34731 ft | 478 kts | 53° |
| 2026-05-04 08:05 | 39.38657 | 78.87106 | 34727 ft | 479 kts | 53° |
| 2026-05-04 08:06 | 39.42642 | 78.94022 | 34720 ft | 479 kts | 53° |
| 2026-05-04 08:06 | 39.46631 | 79.00960 | 34712 ft | 480 kts | 53° |
| 2026-05-04 08:08 | 39.62532 | 79.28768 | 34710 ft | 480 kts | 54° |
| 2026-05-04 08:11 | 39.80322 | 79.60185 | 34713 ft | 480 kts | 54° |
| 2026-05-04 08:11 | 39.86242 | 79.70708 | 34712 ft | 480 kts | 54° |
| 2026-05-04 08:12 | 39.90185 | 79.77737 | 34711 ft | 480 kts | 54° |
| 2026-05-04 08:12 | 39.94119 | 79.84766 | 34715 ft | 480 kts | 54° |
| 2026-05-04 08:13 | 39.98026 | 79.91762 | 34712 ft | 480 kts | 54° |
| 2026-05-04 08:13 | 40.01953 | 79.98811 | 34717 ft | 480 kts | 54° |
| 2026-05-04 08:14 | 40.05878 | 80.05872 | 34713 ft | 480 kts | 54° |
| 2026-05-04 08:16 | 40.21822 | 80.33918 | 34713 ft | 480 kts | 53° |
| 2026-05-04 08:16 | 40.25837 | 80.40853 | 34712 ft | 480 kts | 53° |
| 2026-05-04 08:17 | 40.29864 | 80.47848 | 34717 ft | 480 kts | 53° |
| 2026-05-04 08:17 | 40.33878 | 80.54843 | 34710 ft | 480 kts | 53° |
| 2026-05-04 08:19 | 40.49856 | 80.82839 | 34715 ft | 479 kts | 53° |
| 2026-05-04 08:20 | 40.53844 | 80.89865 | 34717 ft | 480 kts | 53° |
| 2026-05-04 08:20 | 40.57834 | 80.96911 | 34716 ft | 480 kts | 53° |
| 2026-05-04 08:21 | 40.61819 | 81.03965 | 34716 ft | 481 kts | 53° |
| 2026-05-04 08:21 | 40.65804 | 81.11034 | 34720 ft | 480 kts | 53° |
| 2026-05-04 08:22 | 40.69788 | 81.18117 | 34721 ft | 480 kts | 53° |
| 2026-05-04 08:24 | 40.85620 | 81.46426 | 34720 ft | 479 kts | 54° |
| 2026-05-04 08:24 | 40.89568 | 81.53527 | 34718 ft | 479 kts | 54° |
| 2026-05-04 08:25 | 40.93510 | 81.60634 | 34719 ft | 479 kts | 54° |
| 2026-05-04 08:25 | 40.97449 | 81.67732 | 34722 ft | 479 kts | 53° |
| 2026-05-04 08:27 | 41.14241 | 81.95086 | 34727 ft | 479 kts | 51° |
| 2026-05-04 08:28 | 41.18423 | 82.01976 | 34723 ft | 479 kts | 51° |
| 2026-05-04 08:28 | 41.22599 | 82.08870 | 34729 ft | 479 kts | 51° |
| 2026-05-04 08:29 | 41.26781 | 82.15788 | 34728 ft | 479 kts | 51° |
| 2026-05-04 08:31 | 41.43433 | 82.43480 | 34732 ft | 480 kts | 52° |
| 2026-05-04 08:33 | 41.60092 | 82.71441 | 34735 ft | 481 kts | 52° |
| 2026-05-04 08:35 | 41.75430 | 83.00674 | 34738 ft | 481 kts | 59° |
| 2026-05-04 08:35 | 41.78923 | 83.08256 | 34743 ft | 481 kts | 59° |
| 2026-05-04 08:37 | 41.91297 | 83.34913 | 34776 ft | 481 kts | 59° |
| 2026-05-04 08:38 | 41.94829 | 83.42564 | 34773 ft | 481 kts | 59° |
| 2026-05-04 08:38 | 41.98344 | 83.50198 | 34790 ft | 481 kts | 59° |
| 2026-05-04 08:40 | 42.12387 | 83.80891 | 34801 ft | 481 kts | 59° |
| 2026-05-04 08:41 | 42.15851 | 83.88514 | 34832 ft | 480 kts | 59° |
| 2026-05-04 08:41 | 42.19341 | 83.96208 | 34839 ft | 480 kts | 60° |
| 2026-05-04 08:42 | 42.22902 | 84.03853 | 34856 ft | 481 kts | 57° |
| 2026-05-04 08:42 | 42.26695 | 84.11300 | 34875 ft | 482 kts | 56° |
| 2026-05-04 08:43 | 42.30534 | 84.18742 | 34883 ft | 483 kts | 56° |
| 2026-05-04 08:43 | 42.34353 | 84.26237 | 34879 ft | 484 kts | 57° |
| 2026-05-04 08:44 | 42.38128 | 84.33715 | 34884 ft | 484 kts | 57° |
| 2026-05-04 08:46 | 42.53249 | 84.63917 | 34888 ft | 485 kts | 57° |
| 2026-05-04 08:46 | 42.56417 | 84.70279 | 34901 ft | 485 kts | 57° |
| 2026-05-04 08:47 | 42.60159 | 84.77813 | 34905 ft | 485 kts | 57° |
| 2026-05-04 08:47 | 42.63933 | 84.85432 | 34907 ft | 486 kts | 57° |
| 2026-05-04 08:48 | 42.67734 | 84.93125 | 34172 ft | 495 kts | 57° |
| 2026-05-04 08:48 | 42.69644 | 84.96998 | 33580 ft | 493 kts | 57° |
| 2026-05-04 08:48 | 42.71556 | 85.00880 | 32905 ft | 492 kts | 57° |
| 2026-05-04 08:48 | 42.73433 | 85.04695 | 32298 ft | 490 kts | 57° |
| 2026-05-04 08:49 | 42.75324 | 85.08544 | 31775 ft | 487 kts | 57° |
| 2026-05-04 08:50 | 42.86296 | 85.30975 | 28745 ft | 462 kts | 57° |
| 2026-05-04 08:50 | 42.88065 | 85.34608 | 28222 ft | 458 kts | 57° |
| 2026-05-04 08:51 | 42.89818 | 85.38212 | 27705 ft | 454 kts | 56° |
| 2026-05-04 08:51 | 42.91558 | 85.41794 | 27195 ft | 450 kts | 56° |
| 2026-05-04 08:51 | 42.93280 | 85.45344 | 26703 ft | 447 kts | 56° |
| 2026-05-04 08:51 | 42.94987 | 85.48866 | 26210 ft | 443 kts | 56° |
| 2026-05-04 08:52 | 42.96659 | 85.52321 | 25734 ft | 440 kts | 56° |
| 2026-05-04 08:52 | 42.98339 | 85.55795 | 25259 ft | 437 kts | 56° |
| 2026-05-04 08:52 | 43.00006 | 85.59247 | 24805 ft | 434 kts | 56° |
| 2026-05-04 08:52 | 43.01662 | 85.62680 | 24341 ft | 430 kts | 56° |
| 2026-05-04 08:53 | 43.03304 | 85.66089 | 23896 ft | 427 kts | 56° |
| 2026-05-04 08:54 | 43.14411 | 85.89245 | 20389 ft | 406 kts | 56° |
| 2026-05-04 08:55 | 43.15949 | 85.92466 | 19905 ft | 403 kts | 56° |
| 2026-05-04 08:55 | 43.17478 | 85.95669 | 19420 ft | 400 kts | 56° |
| 2026-05-04 08:55 | 43.18996 | 85.98845 | 18975 ft | 396 kts | 56° |
| 2026-05-04 08:55 | 43.20525 | 86.01987 | 18518 ft | 394 kts | 55° |
| 2026-05-04 08:57 | 43.30830 | 86.23142 | 16022 ft | 351 kts | 56° |
| 2026-05-04 09:01 | 43.49314 | 86.61280 | 15998 ft | 341 kts | 56° |
| 2026-05-04 09:01 | 43.50626 | 86.63992 | 16003 ft | 340 kts | 56° |
| 2026-05-04 09:01 | 43.51938 | 86.66704 | 15991 ft | 341 kts | 56° |
| 2026-05-04 09:01 | 43.53253 | 86.69426 | 15989 ft | 341 kts | 56° |
| 2026-05-04 09:02 | 43.54575 | 86.72166 | 15896 ft | 345 kts | 56° |
| 2026-05-04 09:02 | 43.55910 | 86.74956 | 15430 ft | 350 kts | 56° |
| 2026-05-04 09:02 | 43.57243 | 86.77762 | 15000 ft | 350 kts | 56° |
| 2026-05-04 09:02 | 43.58576 | 86.80570 | 14554 ft | 349 kts | 56° |
| 2026-05-04 09:03 | 43.59879 | 86.83316 | 14120 ft | 348 kts | 56° |
| 2026-05-04 09:03 | 43.61183 | 86.86067 | 13708 ft | 347 kts | 56° |
| 2026-05-04 09:03 | 43.62491 | 86.88830 | 13239 ft | 339 kts | 56° |
| 2026-05-04 09:03 | 43.63767 | 86.91525 | 12767 ft | 332 kts | 56° |
| 2026-05-04 09:04 | 43.65019 | 86.94174 | 12299 ft | 325 kts | 55° |
| 2026-05-04 09:04 | 43.66246 | 86.96768 | 11841 ft | 319 kts | 55° |
| 2026-05-04 09:04 | 43.67434 | 86.99285 | 11394 ft | 314 kts | 55° |
| 2026-05-04 09:04 | 43.68615 | 87.01788 | 10949 ft | 309 kts | 55° |
| 2026-05-04 09:05 | 43.69779 | 87.04256 | 10517 ft | 303 kts | 55° |
| 2026-05-04 09:05 | 43.70902 | 87.06643 | 10399 ft | 287 kts | 55° |
| 2026-05-04 09:05 | 43.71964 | 87.08899 | 10203 ft | 275 kts | 54° |
| 2026-05-04 09:05 | 43.72997 | 87.11096 | 9904 ft | 269 kts | 54° |
| 2026-05-04 09:06 | 43.73988 | 87.13242 | 9589 ft | 262 kts | 60° |
| 2026-05-04 09:07 | 43.73052 | 87.27514 | 7499 ft | 211 kts | 37° |
| 2026-05-04 09:08 | 43.74314 | 87.28346 | 7169 ft | 197 kts | 359° |
| 2026-05-04 09:08 | 43.75532 | 87.27672 | 6907 ft | 193 kts | 317° |
| 2026-05-04 09:08 | 43.76449 | 87.26342 | 6673 ft | 188 kts | 319° |
| 2026-05-04 09:08 | 43.77405 | 87.25223 | 6722 ft | 178 kts | 324° |
| 2026-05-04 09:09 | 43.78481 | 87.24220 | 6832 ft | 197 kts | 330° |
| 2026-05-04 09:09 | 43.79692 | 87.23314 | 6876 ft | 198 kts | 335° |
| 2026-05-04 09:09 | 43.80939 | 87.22427 | 6810 ft | 205 kts | 329° |
| 2026-05-04 09:09 | 43.82146 | 87.21412 | 6622 ft | 200 kts | 332° |
| 2026-05-04 09:10 | 43.83379 | 87.20573 | 6451 ft | 195 kts | 338° |
| 2026-05-04 09:10 | 43.84597 | 87.19909 | 6276 ft | 191 kts | 337° |
| 2026-05-04 09:10 | 43.85873 | 87.19436 | 6009 ft | 194 kts | 6° |
| 2026-05-04 09:10 | 43.87000 | 87.20339 | 5804 ft | 191 kts | 54° |
| 2026-05-04 09:11 | 43.87353 | 87.22074 | 5675 ft | 183 kts | 79° |
| 2026-05-04 09:11 | 43.87609 | 87.23801 | 5551 ft | 186 kts | 73° |
| 2026-05-04 09:11 | 43.87924 | 87.25717 | 4650 ft | 221 kts | 75° |
| 2026-05-04 09:11 | 43.88285 | 87.27676 | 4563 ft | 205 kts | 72° |
| 2026-05-04 09:12 | 43.88665 | 87.29514 | 4318 ft | 192 kts | 71° |
| 2026-05-04 09:12 | 43.89028 | 87.31228 | 4121 ft | 176 kts | 70° |
| 2026-05-04 09:14 | 43.91140 | 87.41527 | 2792 ft | 152 kts | 84° |
| 2026-05-04 09:14 | 43.90756 | 87.42872 | 3271 ft | 161 kts | 128° |
| 2026-05-04 09:14 | 43.89820 | 87.43702 | 3939 ft | 157 kts | 163° |
| 2026-05-04 09:14 | 43.88793 | 87.43517 | 4591 ft | 152 kts | 211° |
| 2026-05-04 09:15 | 43.88085 | 87.42424 | 5021 ft | 163 kts | 246° |
| 2026-05-04 09:15 | 43.87711 | 87.40829 | 4851 ft | 180 kts | 261° |
| 2026-05-04 09:15 | 43.87528 | 87.39203 | 4912 ft | 164 kts | 266° |
| 2026-05-04 09:15 | 43.87295 | 87.37626 | 5141 ft | 169 kts | 262° |
| 2026-05-04 09:17 | 43.88909 | 87.39380 | 3603 ft | 156 kts | 68° |
| 2026-05-04 09:18 | 43.89263 | 87.40851 | 3234 ft | 164 kts | 70° |
| 2026-05-04 09:18 | 43.89578 | 87.42365 | 2787 ft | 160 kts | 67° |
| 2026-05-04 09:18 | 43.89935 | 87.43793 | 2411 ft | 153 kts | 72° |
| 2026-05-04 09:18 | 43.90249 | 87.45230 | 2217 ft | 159 kts | 70° |
| 2026-05-04 09:19 | 43.90551 | 87.46650 | 2135 ft | 137 kts | 76° |
| 2026-05-04 09:19 | 43.90740 | 87.47551 | 2134 ft | 38 kts | 74° |
| 2026-05-04 09:19 | 43.90760 | 87.47663 | 2135 ft | 7 kts | 78° |
| 2026-05-04 09:19 | 43.90770 | 87.47731 | 2135 ft | 7 kts | 78° |
| 2026-05-04 09:20 | 43.90774 | 87.47800 | 2135 ft | 7 kts | 92° |
| 2026-05-04 09:20 | 43.90769 | 87.47870 | 2135 ft | 7 kts | 99° |
| 2026-05-04 09:20 | 43.90758 | 87.47936 | 2135 ft | 7 kts | 103° |
| 2026-05-04 09:20 | 43.90748 | 87.48001 | 2132 ft | 7 kts | 102° |
| 2026-05-04 09:21 | 43.90731 | 87.48061 | 2133 ft | 7 kts | 127° |
| 2026-05-04 09:21 | 43.90690 | 87.48087 | 2134 ft | 7 kts | 166° |
| 2026-05-04 09:21 | 43.90646 | 87.48104 | 2134 ft | 6 kts | 165° |
| 2026-05-04 09:21 | 43.90602 | 87.48120 | 2134 ft | 6 kts | 165° |
| 2026-05-04 09:22 | 43.90560 | 87.48136 | 2134 ft | 6 kts | 160° |
| 2026-05-04 09:22 | 43.90521 | 87.48161 | 2133 ft | 6 kts | 154° |
| 2026-05-04 09:22 | 43.90483 | 87.48183 | 2134 ft | 6 kts | 162° |
| 2026-05-04 09:22 | 43.90443 | 87.48201 | 2134 ft | 6 kts | 159° |
| 2026-05-04 09:23 | 43.90435 | 87.48206 | 2133 ft | 0 kts | 159° |